sensor_id;sensor_type;location;lat;lon;timestamp;P1;durP1;ratioP1;P2;durP2;ratioP2
11414;SDS011;5763;42.714;23.244;2023-07-31T00:01:16;3.10;;;2.90;;
11414;SDS011;5763;42.714;23.244;2023-07-31T00:03:42;3.17;;;2.90;;
11414;SDS011;5763;42.714;23.244;2023-07-31T00:06:09;4.00;;;2.88;;
11414;SDS011;5763;42.714;23.244;2023-07-31T00:08:36;3.33;;;3.03;;
11414;SDS011;5763;42.714;23.244;2023-07-31T00:11:03;3.20;;;2.90;;
11414;SDS011;5763;42.714;23.244;2023-07-31T00:13:31;3.15;;;2.70;;
11414;SDS011;5763;42.714;23.244;2023-07-31T00:15:57;3.90;;;3.10;;
11414;SDS011;5763;42.714;23.244;2023-07-31T00:18:25;3.35;;;3.05;;
11414;SDS011;5763;42.714;23.244;2023-07-31T00:20:52;4.72;;;3.42;;
11414;SDS011;5763;42.714;23.244;2023-07-31T00:23:18;3.67;;;3.30;;
11414;SDS011;5763;42.714;23.244;2023-07-31T00:25:45;3.53;;;3.28;;
11414;SDS011;5763;42.714;23.244;2023-07-31T00:28:12;3.60;;;3.30;;
11414;SDS011;5763;42.714;23.244;2023-07-31T00:30:40;3.63;;;3.33;;
11414;SDS011;5763;42.714;23.244;2023-07-31T00:33:06;4.40;;;3.53;;
11414;SDS011;5763;42.714;23.244;2023-07-31T00:35:33;4.00;;;3.70;;
11414;SDS011;5763;42.714;23.244;2023-07-31T00:38:00;4.75;;;4.35;;
11414;SDS011;5763;42.714;23.244;2023-07-31T00:40:26;6.53;;;4.95;;
11414;SDS011;5763;42.714;23.244;2023-07-31T00:42:53;6.20;;;5.70;;
11414;SDS011;5763;42.714;23.244;2023-07-31T00:45:20;6.85;;;6.25;;
11414;SDS011;5763;42.714;23.244;2023-07-31T00:47:53;7.43;;;6.82;;
11414;SDS011;5763;42.714;23.244;2023-07-31T00:50:20;7.60;;;6.90;;
11414;SDS011;5763;42.714;23.244;2023-07-31T00:52:48;7.93;;;7.15;;
11414;SDS011;5763;42.714;23.244;2023-07-31T00:55:15;9.18;;;7.55;;
11414;SDS011;5763;42.714;23.244;2023-07-31T00:57:43;8.25;;;7.53;;
11414;SDS011;5763;42.714;23.244;2023-07-31T01:00:11;8.65;;;7.95;;
11414;SDS011;5763;42.714;23.244;2023-07-31T01:02:38;8.63;;;7.88;;
11414;SDS011;5763;42.714;23.244;2023-07-31T01:05:07;9.75;;;8.82;;
11414;SDS011;5763;42.714;23.244;2023-07-31T01:07:35;10.60;;;9.63;;
11414;SDS011;5763;42.714;23.244;2023-07-31T01:10:11;10.65;;;9.75;;
11414;SDS011;5763;42.714;23.244;2023-07-31T01:12:43;11.00;;;10.07;;
11414;SDS011;5763;42.714;23.244;2023-07-31T01:15:11;10.32;;;9.32;;
11414;SDS011;5763;42.714;23.244;2023-07-31T01:17:40;10.52;;;9.52;;
11414;SDS011;5763;42.714;23.244;2023-07-31T01:20:10;10.55;;;9.65;;
11414;SDS011;5763;42.714;23.244;2023-07-31T01:22:49;10.88;;;9.95;;
11414;SDS011;5763;42.714;23.244;2023-07-31T01:25:36;11.95;;;10.85;;
11414;SDS011;5763;42.714;23.244;2023-07-31T01:28:21;12.20;;;10.95;;
11414;SDS011;5763;42.714;23.244;2023-07-31T01:30:52;13.02;;;11.93;;
11414;SDS011;5763;42.714;23.244;2023-07-31T01:33:21;12.98;;;11.77;;
11414;SDS011;5763;42.714;23.244;2023-07-31T01:35:49;13.85;;;12.65;;
11414;SDS011;5763;42.714;23.244;2023-07-31T01:38:20;14.65;;;13.25;;
11414;SDS011;5763;42.714;23.244;2023-07-31T01:40:50;14.20;;;13.00;;
11414;SDS011;5763;42.714;23.244;2023-07-31T01:43:19;14.73;;;13.35;;
11414;SDS011;5763;42.714;23.244;2023-07-31T01:45:46;14.60;;;13.23;;
11414;SDS011;5763;42.714;23.244;2023-07-31T01:48:13;15.93;;;14.52;;
11414;SDS011;5763;42.714;23.244;2023-07-31T01:50:40;14.93;;;13.63;;
11414;SDS011;5763;42.714;23.244;2023-07-31T01:53:06;16.45;;;14.95;;
11414;SDS011;5763;42.714;23.244;2023-07-31T01:55:33;16.58;;;15.02;;
11414;SDS011;5763;42.714;23.244;2023-07-31T01:58:01;16.48;;;14.98;;
11414;SDS011;5763;42.714;23.244;2023-07-31T02:00:28;16.33;;;14.75;;
11414;SDS011;5763;42.714;23.244;2023-07-31T02:02:55;16.67;;;15.18;;
11414;SDS011;5763;42.714;23.244;2023-07-31T02:05:21;16.60;;;15.10;;
11414;SDS011;5763;42.714;23.244;2023-07-31T02:07:48;17.13;;;15.50;;
11414;SDS011;5763;42.714;23.244;2023-07-31T02:10:15;17.02;;;15.43;;
11414;SDS011;5763;42.714;23.244;2023-07-31T02:12:41;17.27;;;15.75;;
11414;SDS011;5763;42.714;23.244;2023-07-31T02:15:10;16.30;;;14.90;;
11414;SDS011;5763;42.714;23.244;2023-07-31T02:17:36;17.80;;;16.20;;
11414;SDS011;5763;42.714;23.244;2023-07-31T02:20:03;17.77;;;16.10;;
11414;SDS011;5763;42.714;23.244;2023-07-31T02:22:31;17.60;;;15.93;;
11414;SDS011;5763;42.714;23.244;2023-07-31T02:24:58;17.58;;;15.98;;
11414;SDS011;5763;42.714;23.244;2023-07-31T02:27:25;17.15;;;15.57;;
11414;SDS011;5763;42.714;23.244;2023-07-31T02:29:52;17.13;;;15.55;;
11414;SDS011;5763;42.714;23.244;2023-07-31T02:32:20;17.85;;;16.23;;
11414;SDS011;5763;42.714;23.244;2023-07-31T02:34:47;18.30;;;16.52;;
11414;SDS011;5763;42.714;23.244;2023-07-31T02:37:14;17.25;;;15.75;;
11414;SDS011;5763;42.714;23.244;2023-07-31T02:39:41;17.48;;;15.88;;
11414;SDS011;5763;42.714;23.244;2023-07-31T02:42:07;17.80;;;16.15;;
11414;SDS011;5763;42.714;23.244;2023-07-31T02:44:34;18.23;;;16.52;;
11414;SDS011;5763;42.714;23.244;2023-07-31T02:47:01;17.45;;;15.90;;
11414;SDS011;5763;42.714;23.244;2023-07-31T02:49:29;17.88;;;16.30;;
11414;SDS011;5763;42.714;23.244;2023-07-31T02:51:56;17.83;;;16.20;;
11414;SDS011;5763;42.714;23.244;2023-07-31T02:54:23;17.63;;;16.00;;
11414;SDS011;5763;42.714;23.244;2023-07-31T02:56:50;18.65;;;16.95;;
11414;SDS011;5763;42.714;23.244;2023-07-31T02:59:17;17.45;;;15.85;;
11414;SDS011;5763;42.714;23.244;2023-07-31T03:01:43;18.10;;;16.45;;
11414;SDS011;5763;42.714;23.244;2023-07-31T03:04:10;18.33;;;16.52;;
11414;SDS011;5763;42.714;23.244;2023-07-31T03:06:38;18.52;;;16.83;;
11414;SDS011;5763;42.714;23.244;2023-07-31T03:09:05;17.80;;;16.20;;
11414;SDS011;5763;42.714;23.244;2023-07-31T03:11:32;18.20;;;16.60;;
11414;SDS011;5763;42.714;23.244;2023-07-31T03:13:58;18.65;;;16.85;;
11414;SDS011;5763;42.714;23.244;2023-07-31T03:16:25;17.90;;;16.20;;
11414;SDS011;5763;42.714;23.244;2023-07-31T03:18:52;19.95;;;17.98;;
11414;SDS011;5763;42.714;23.244;2023-07-31T03:21:19;17.83;;;16.05;;
11414;SDS011;5763;42.714;23.244;2023-07-31T03:23:47;17.52;;;16.02;;
11414;SDS011;5763;42.714;23.244;2023-07-31T03:26:13;17.65;;;15.95;;
11414;SDS011;5763;42.714;23.244;2023-07-31T03:28:40;18.20;;;16.45;;
11414;SDS011;5763;42.714;23.244;2023-07-31T03:31:07;17.95;;;16.30;;
11414;SDS011;5763;42.714;23.244;2023-07-31T03:33:34;18.75;;;17.05;;
11414;SDS011;5763;42.714;23.244;2023-07-31T03:36:01;18.98;;;17.15;;
11414;SDS011;5763;42.714;23.244;2023-07-31T03:38:28;18.08;;;16.38;;
11414;SDS011;5763;42.714;23.244;2023-07-31T03:40:56;20.02;;;18.05;;
11414;SDS011;5763;42.714;23.244;2023-07-31T03:43:23;18.77;;;17.00;;
11414;SDS011;5763;42.714;23.244;2023-07-31T03:45:51;20.20;;;18.23;;
11414;SDS011;5763;42.714;23.244;2023-07-31T03:48:17;19.75;;;17.77;;
11414;SDS011;5763;42.714;23.244;2023-07-31T03:50:44;19.65;;;17.75;;
11414;SDS011;5763;42.714;23.244;2023-07-31T03:53:11;19.40;;;17.58;;
11414;SDS011;5763;42.714;23.244;2023-07-31T03:55:38;20.60;;;18.60;;
11414;SDS011;5763;42.714;23.244;2023-07-31T03:58:06;20.20;;;18.15;;
11414;SDS011;5763;42.714;23.244;2023-07-31T04:00:33;20.08;;;18.10;;
11414;SDS011;5763;42.714;23.244;2023-07-31T04:02:59;22.52;;;18.55;;
11414;SDS011;5763;42.714;23.244;2023-07-31T04:05:26;20.80;;;18.73;;
11414;SDS011;5763;42.714;23.244;2023-07-31T04:07:53;21.20;;;19.30;;
11414;SDS011;5763;42.714;23.244;2023-07-31T04:10:20;20.40;;;18.40;;
11414;SDS011;5763;42.714;23.244;2023-07-31T04:12:47;21.10;;;19.10;;
11414;SDS011;5763;42.714;23.244;2023-07-31T04:15:15;20.00;;;18.25;;
11414;SDS011;5763;42.714;23.244;2023-07-31T04:17:42;20.55;;;18.60;;
11414;SDS011;5763;42.714;23.244;2023-07-31T04:20:09;21.70;;;19.63;;
11414;SDS011;5763;42.714;23.244;2023-07-31T04:22:36;19.55;;;17.60;;
11414;SDS011;5763;42.714;23.244;2023-07-31T04:25:03;20.58;;;18.50;;
11414;SDS011;5763;42.714;23.244;2023-07-31T04:27:30;20.13;;;18.23;;
11414;SDS011;5763;42.714;23.244;2023-07-31T04:29:57;20.70;;;18.80;;
11414;SDS011;5763;42.714;23.244;2023-07-31T04:32:25;21.35;;;19.27;;
11414;SDS011;5763;42.714;23.244;2023-07-31T04:34:52;19.23;;;17.42;;
11414;SDS011;5763;42.714;23.244;2023-07-31T04:37:19;19.60;;;17.75;;
11414;SDS011;5763;42.714;23.244;2023-07-31T04:39:45;20.88;;;18.88;;
11414;SDS011;5763;42.714;23.244;2023-07-31T04:42:12;19.10;;;17.30;;
11414;SDS011;5763;42.714;23.244;2023-07-31T04:44:39;19.92;;;17.92;;
11414;SDS011;5763;42.714;23.244;2023-07-31T04:47:06;19.60;;;17.50;;
11414;SDS011;5763;42.714;23.244;2023-07-31T04:49:34;19.55;;;17.60;;
11414;SDS011;5763;42.714;23.244;2023-07-31T04:52:01;20.23;;;18.23;;
11414;SDS011;5763;42.714;23.244;2023-07-31T04:54:28;19.63;;;17.73;;
11414;SDS011;5763;42.714;23.244;2023-07-31T04:56:55;19.27;;;17.40;;
11414;SDS011;5763;42.714;23.244;2023-07-31T04:59:21;17.65;;;15.93;;
11414;SDS011;5763;42.714;23.244;2023-07-31T05:01:48;17.13;;;15.50;;
11414;SDS011;5763;42.714;23.244;2023-07-31T05:04:15;17.83;;;16.20;;
11414;SDS011;5763;42.714;23.244;2023-07-31T05:06:43;17.70;;;16.15;;
11414;SDS011;5763;42.714;23.244;2023-07-31T05:09:10;15.95;;;14.55;;
11414;SDS011;5763;42.714;23.244;2023-07-31T05:11:37;15.45;;;13.95;;
11414;SDS011;5763;42.714;23.244;2023-07-31T05:14:05;14.90;;;13.60;;
11414;SDS011;5763;42.714;23.244;2023-07-31T05:16:32;15.23;;;13.85;;
11414;SDS011;5763;42.714;23.244;2023-07-31T05:18:59;15.25;;;13.85;;
11414;SDS011;5763;42.714;23.244;2023-07-31T05:21:28;15.20;;;13.60;;
11414;SDS011;5763;42.714;23.244;2023-07-31T05:23:56;14.25;;;13.02;;
11414;SDS011;5763;42.714;23.244;2023-07-31T05:26:23;14.57;;;13.27;;
11414;SDS011;5763;42.714;23.244;2023-07-31T05:28:50;13.73;;;12.30;;
11414;SDS011;5763;42.714;23.244;2023-07-31T05:31:16;13.45;;;12.15;;
11414;SDS011;5763;42.714;23.244;2023-07-31T05:33:44;12.38;;;11.38;;
11414;SDS011;5763;42.714;23.244;2023-07-31T05:36:10;11.48;;;10.38;;
11414;SDS011;5763;42.714;23.244;2023-07-31T05:38:37;9.27;;;8.48;;
11414;SDS011;5763;42.714;23.244;2023-07-31T05:41:05;9.57;;;8.77;;
11414;SDS011;5763;42.714;23.244;2023-07-31T05:43:32;10.32;;;8.90;;
11414;SDS011;5763;42.714;23.244;2023-07-31T05:45:58;9.10;;;8.30;;
11414;SDS011;5763;42.714;23.244;2023-07-31T05:48:26;8.63;;;7.93;;
11414;SDS011;5763;42.714;23.244;2023-07-31T05:50:53;9.00;;;8.20;;
11414;SDS011;5763;42.714;23.244;2023-07-31T05:53:20;8.88;;;8.07;;
11414;SDS011;5763;42.714;23.244;2023-07-31T05:55:47;7.63;;;6.93;;
11414;SDS011;5763;42.714;23.244;2023-07-31T05:58:15;7.53;;;6.82;;
11414;SDS011;5763;42.714;23.244;2023-07-31T06:00:41;7.22;;;6.63;;
11414;SDS011;5763;42.714;23.244;2023-07-31T06:03:08;7.18;;;6.53;;
11414;SDS011;5763;42.714;23.244;2023-07-31T06:05:35;6.35;;;5.70;;
11414;SDS011;5763;42.714;23.244;2023-07-31T06:08:02;5.95;;;5.45;;
11414;SDS011;5763;42.714;23.244;2023-07-31T06:10:29;6.28;;;5.68;;
11414;SDS011;5763;42.714;23.244;2023-07-31T06:12:56;6.00;;;5.50;;
11414;SDS011;5763;42.714;23.244;2023-07-31T06:15:25;5.60;;;5.10;;
11414;SDS011;5763;42.714;23.244;2023-07-31T06:17:51;5.72;;;5.22;;
11414;SDS011;5763;42.714;23.244;2023-07-31T06:20:18;5.60;;;5.05;;
11414;SDS011;5763;42.714;23.244;2023-07-31T06:22:45;5.63;;;5.15;;
11414;SDS011;5763;42.714;23.244;2023-07-31T06:25:12;6.70;;;6.10;;
11414;SDS011;5763;42.714;23.244;2023-07-31T06:27:39;5.60;;;5.10;;
11414;SDS011;5763;42.714;23.244;2023-07-31T06:30:06;5.20;;;4.80;;
11414;SDS011;5763;42.714;23.244;2023-07-31T06:32:35;4.95;;;4.47;;
11414;SDS011;5763;42.714;23.244;2023-07-31T06:35:02;5.13;;;4.18;;
11414;SDS011;5763;42.714;23.244;2023-07-31T06:37:29;4.32;;;4.03;;
11414;SDS011;5763;42.714;23.244;2023-07-31T06:39:56;4.75;;;4.35;;
11414;SDS011;5763;42.714;23.244;2023-07-31T06:42:22;5.78;;;4.20;;
11414;SDS011;5763;42.714;23.244;2023-07-31T06:44:49;4.57;;;4.18;;
11414;SDS011;5763;42.714;23.244;2023-07-31T06:47:16;4.15;;;3.85;;
11414;SDS011;5763;42.714;23.244;2023-07-31T06:49:44;4.22;;;3.92;;
11414;SDS011;5763;42.714;23.244;2023-07-31T06:52:10;4.40;;;4.00;;
11414;SDS011;5763;42.714;23.244;2023-07-31T06:54:37;4.07;;;3.67;;
11414;SDS011;5763;42.714;23.244;2023-07-31T06:57:04;3.90;;;3.60;;
11414;SDS011;5763;42.714;23.244;2023-07-31T06:59:31;4.88;;;3.90;;
11414;SDS011;5763;42.714;23.244;2023-07-31T07:01:58;5.63;;;3.92;;
11414;SDS011;5763;42.714;23.244;2023-07-31T07:04:24;4.22;;;3.53;;
11414;SDS011;5763;42.714;23.244;2023-07-31T07:06:53;3.80;;;3.50;;
11414;SDS011;5763;42.714;23.244;2023-07-31T07:09:20;3.58;;;3.28;;
11414;SDS011;5763;42.714;23.244;2023-07-31T07:11:46;3.80;;;3.50;;
11414;SDS011;5763;42.714;23.244;2023-07-31T07:14:13;6.45;;;4.43;;
11414;SDS011;5763;42.714;23.244;2023-07-31T07:16:40;4.80;;;4.07;;
11414;SDS011;5763;42.714;23.244;2023-07-31T07:19:07;4.25;;;3.85;;
11414;SDS011;5763;42.714;23.244;2023-07-31T07:21:34;4.40;;;3.60;;
11414;SDS011;5763;42.714;23.244;2023-07-31T07:24:02;3.45;;;3.15;;
11414;SDS011;5763;42.714;23.244;2023-07-31T07:26:29;4.20;;;3.80;;
11414;SDS011;5763;42.714;23.244;2023-07-31T07:28:56;6.38;;;3.42;;
11414;SDS011;5763;42.714;23.244;2023-07-31T07:31:23;3.40;;;3.10;;
11414;SDS011;5763;42.714;23.244;2023-07-31T07:33:50;3.50;;;3.17;;
11414;SDS011;5763;42.714;23.244;2023-07-31T07:36:17;5.07;;;3.30;;
11414;SDS011;5763;42.714;23.244;2023-07-31T07:38:43;5.45;;;3.67;;
11414;SDS011;5763;42.714;23.244;2023-07-31T07:41:12;5.15;;;4.10;;
11414;SDS011;5763;42.714;23.244;2023-07-31T07:43:38;3.85;;;2.47;;
11414;SDS011;5763;42.714;23.244;2023-07-31T07:46:05;3.35;;;2.72;;
11414;SDS011;5763;42.714;23.244;2023-07-31T07:48:32;3.40;;;3.10;;
11414;SDS011;5763;42.714;23.244;2023-07-31T07:50:58;3.72;;;3.15;;
11414;SDS011;5763;42.714;23.244;2023-07-31T07:53:25;4.60;;;3.40;;
11414;SDS011;5763;42.714;23.244;2023-07-31T07:55:52;4.13;;;3.20;;
11414;SDS011;5763;42.714;23.244;2023-07-31T07:58:20;3.47;;;3.17;;
11414;SDS011;5763;42.714;23.244;2023-07-31T08:00:50;3.63;;;3.20;;
11414;SDS011;5763;42.714;23.244;2023-07-31T08:03:17;4.10;;;3.10;;
11414;SDS011;5763;42.714;23.244;2023-07-31T08:05:44;4.30;;;3.17;;
11414;SDS011;5763;42.714;23.244;2023-07-31T08:08:13;4.13;;;3.00;;
11414;SDS011;5763;42.714;23.244;2023-07-31T08:10:41;3.30;;;2.97;;
11414;SDS011;5763;42.714;23.244;2023-07-31T08:13:09;4.03;;;3.53;;
11414;SDS011;5763;42.714;23.244;2023-07-31T08:15:37;5.00;;;3.55;;
11414;SDS011;5763;42.714;23.244;2023-07-31T08:18:04;3.17;;;2.95;;
11414;SDS011;5763;42.714;23.244;2023-07-31T08:20:30;5.28;;;3.30;;
11414;SDS011;5763;42.714;23.244;2023-07-31T08:22:57;3.50;;;3.00;;
11414;SDS011;5763;42.714;23.244;2023-07-31T08:25:24;3.50;;;2.65;;
11414;SDS011;5763;42.714;23.244;2023-07-31T08:27:51;5.15;;;3.35;;
11414;SDS011;5763;42.714;23.244;2023-07-31T08:30:18;5.20;;;3.20;;
11414;SDS011;5763;42.714;23.244;2023-07-31T08:32:47;4.15;;;2.97;;
11414;SDS011;5763;42.714;23.244;2023-07-31T08:35:14;3.22;;;2.90;;
11414;SDS011;5763;42.714;23.244;2023-07-31T08:37:40;4.18;;;2.78;;
11414;SDS011;5763;42.714;23.244;2023-07-31T08:40:07;3.30;;;3.00;;
11414;SDS011;5763;42.714;23.244;2023-07-31T08:42:42;3.42;;;2.85;;
11414;SDS011;5763;42.714;23.244;2023-07-31T08:45:10;3.17;;;2.90;;
11414;SDS011;5763;42.714;23.244;2023-07-31T08:47:40;2.75;;;2.55;;
11414;SDS011;5763;42.714;23.244;2023-07-31T08:50:10;4.55;;;2.78;;
11414;SDS011;5763;42.714;23.244;2023-07-31T08:52:38;5.03;;;2.63;;
11414;SDS011;5763;42.714;23.244;2023-07-31T08:55:05;3.00;;;2.70;;
11414;SDS011;5763;42.714;23.244;2023-07-31T08:57:34;2.90;;;2.70;;
11414;SDS011;5763;42.714;23.244;2023-07-31T09:00:03;3.65;;;2.90;;
11414;SDS011;5763;42.714;23.244;2023-07-31T09:02:34;3.95;;;3.55;;
11414;SDS011;5763;42.714;23.244;2023-07-31T09:05:05;3.05;;;2.80;;
11414;SDS011;5763;42.714;23.244;2023-07-31T09:07:34;3.50;;;3.20;;
11414;SDS011;5763;42.714;23.244;2023-07-31T09:10:02;4.72;;;3.05;;
11414;SDS011;5763;42.714;23.244;2023-07-31T09:12:29;5.28;;;3.10;;
11414;SDS011;5763;42.714;23.244;2023-07-31T09:14:56;3.47;;;3.08;;
11414;SDS011;5763;42.714;23.244;2023-07-31T09:17:29;2.85;;;2.65;;
11414;SDS011;5763;42.714;23.244;2023-07-31T09:19:57;3.17;;;2.88;;
11414;SDS011;5763;42.714;23.244;2023-07-31T09:22:31;2.70;;;2.50;;
11414;SDS011;5763;42.714;23.244;2023-07-31T09:25:05;5.22;;;3.00;;
11414;SDS011;5763;42.714;23.244;2023-07-31T09:27:45;4.32;;;2.70;;
11414;SDS011;5763;42.714;23.244;2023-07-31T09:30:13;3.63;;;2.60;;
11414;SDS011;5763;42.714;23.244;2023-07-31T09:32:40;2.88;;;2.67;;
11414;SDS011;5763;42.714;23.244;2023-07-31T09:35:13;3.15;;;2.85;;
11414;SDS011;5763;42.714;23.244;2023-07-31T09:37:47;3.75;;;3.08;;
11414;SDS011;5763;42.714;23.244;2023-07-31T09:40:26;3.55;;;2.40;;
11414;SDS011;5763;42.714;23.244;2023-07-31T09:42:54;3.45;;;2.50;;
11414;SDS011;5763;42.714;23.244;2023-07-31T09:45:23;2.78;;;2.20;;
11414;SDS011;5763;42.714;23.244;2023-07-31T09:47:50;3.78;;;2.60;;
11414;SDS011;5763;42.714;23.244;2023-07-31T09:50:17;3.95;;;2.40;;
11414;SDS011;5763;42.714;23.244;2023-07-31T09:52:46;2.50;;;2.13;;
11414;SDS011;5763;42.714;23.244;2023-07-31T09:55:13;4.00;;;2.10;;
11414;SDS011;5763;42.714;23.244;2023-07-31T09:57:41;2.13;;;1.98;;
11414;SDS011;5763;42.714;23.244;2023-07-31T10:00:09;3.05;;;2.20;;
11414;SDS011;5763;42.714;23.244;2023-07-31T10:02:37;2.25;;;2.00;;
11414;SDS011;5763;42.714;23.244;2023-07-31T10:05:05;2.28;;;1.95;;
11414;SDS011;5763;42.714;23.244;2023-07-31T10:07:34;4.07;;;2.20;;
11414;SDS011;5763;42.714;23.244;2023-07-31T10:10:03;4.80;;;2.20;;
11414;SDS011;5763;42.714;23.244;2023-07-31T10:12:31;2.92;;;2.20;;
11414;SDS011;5763;42.714;23.244;2023-07-31T10:15:02;2.28;;;2.08;;
11414;SDS011;5763;42.714;23.244;2023-07-31T10:17:30;2.20;;;2.00;;
11414;SDS011;5763;42.714;23.244;2023-07-31T10:19:57;3.42;;;2.08;;
11414;SDS011;5763;42.714;23.244;2023-07-31T10:22:26;2.63;;;2.20;;
11414;SDS011;5763;42.714;23.244;2023-07-31T10:24:54;2.28;;;2.15;;
11414;SDS011;5763;42.714;23.244;2023-07-31T10:27:23;2.85;;;1.92;;
11414;SDS011;5763;42.714;23.244;2023-07-31T10:29:50;3.22;;;2.30;;
11414;SDS011;5763;42.714;23.244;2023-07-31T10:32:21;2.53;;;2.00;;
11414;SDS011;5763;42.714;23.244;2023-07-31T10:34:49;2.63;;;2.00;;
11414;SDS011;5763;42.714;23.244;2023-07-31T10:37:19;3.92;;;2.10;;
11414;SDS011;5763;42.714;23.244;2023-07-31T10:39:57;2.10;;;1.90;;
11414;SDS011;5763;42.714;23.244;2023-07-31T10:42:32;2.90;;;2.10;;
11414;SDS011;5763;42.714;23.244;2023-07-31T10:45:00;3.15;;;1.90;;
11414;SDS011;5763;42.714;23.244;2023-07-31T10:47:30;1.88;;;1.77;;
11414;SDS011;5763;42.714;23.244;2023-07-31T10:50:12;1.90;;;1.80;;
11414;SDS011;5763;42.714;23.244;2023-07-31T10:52:45;2.50;;;1.92;;
11414;SDS011;5763;42.714;23.244;2023-07-31T10:55:14;2.40;;;1.60;;
11414;SDS011;5763;42.714;23.244;2023-07-31T10:57:51;1.67;;;1.58;;
11414;SDS011;5763;42.714;23.244;2023-07-31T11:00:19;1.80;;;1.70;;
11414;SDS011;5763;42.714;23.244;2023-07-31T11:03:00;2.20;;;2.00;;
11414;SDS011;5763;42.714;23.244;2023-07-31T11:05:41;1.88;;;1.70;;
11414;SDS011;5763;42.714;23.244;2023-07-31T11:08:19;2.75;;;2.00;;
11414;SDS011;5763;42.714;23.244;2023-07-31T11:10:48;2.40;;;1.50;;
11414;SDS011;5763;42.714;23.244;2023-07-31T11:13:16;2.75;;;2.10;;
11414;SDS011;5763;42.714;23.244;2023-07-31T11:15:43;2.63;;;2.13;;
11414;SDS011;5763;42.714;23.244;2023-07-31T11:18:11;2.35;;;1.88;;
11414;SDS011;5763;42.714;23.244;2023-07-31T11:20:38;2.97;;;2.10;;
11414;SDS011;5763;42.714;23.244;2023-07-31T11:23:06;2.42;;;1.98;;
11414;SDS011;5763;42.714;23.244;2023-07-31T11:25:35;2.10;;;1.90;;
11414;SDS011;5763;42.714;23.244;2023-07-31T11:28:06;3.83;;;2.60;;
11414;SDS011;5763;42.714;23.244;2023-07-31T11:30:34;4.35;;;2.70;;
11414;SDS011;5763;42.714;23.244;2023-07-31T11:33:02;3.38;;;3.08;;
11414;SDS011;5763;42.714;23.244;2023-07-31T11:35:31;4.00;;;2.90;;
11414;SDS011;5763;42.714;23.244;2023-07-31T11:37:59;2.92;;;2.38;;
11414;SDS011;5763;42.714;23.244;2023-07-31T11:40:26;2.83;;;2.25;;
11414;SDS011;5763;42.714;23.244;2023-07-31T11:42:55;3.30;;;2.70;;
11414;SDS011;5763;42.714;23.244;2023-07-31T11:45:24;3.40;;;2.70;;
11414;SDS011;5763;42.714;23.244;2023-07-31T11:47:51;3.72;;;3.42;;
11414;SDS011;5763;42.714;23.244;2023-07-31T11:50:20;3.47;;;3.17;;
11414;SDS011;5763;42.714;23.244;2023-07-31T11:52:48;4.82;;;3.88;;
11414;SDS011;5763;42.714;23.244;2023-07-31T11:55:19;4.68;;;3.78;;
11414;SDS011;5763;42.714;23.244;2023-07-31T11:57:45;4.38;;;4.00;;
11414;SDS011;5763;42.714;23.244;2023-07-31T12:00:13;4.20;;;3.90;;
11414;SDS011;5763;42.714;23.244;2023-07-31T12:02:41;5.03;;;4.63;;
11414;SDS011;5763;42.714;23.244;2023-07-31T12:05:10;5.70;;;5.10;;
11414;SDS011;5763;42.714;23.244;2023-07-31T12:07:49;5.28;;;4.82;;
11414;SDS011;5763;42.714;23.244;2023-07-31T12:10:23;5.28;;;4.80;;
11414;SDS011;5763;42.714;23.244;2023-07-31T12:13:02;5.20;;;4.70;;
11414;SDS011;5763;42.714;23.244;2023-07-31T12:18:16;4.97;;;4.53;;
11414;SDS011;5763;42.714;23.244;2023-07-31T12:20:46;4.72;;;4.43;;
11414;SDS011;5763;42.714;23.244;2023-07-31T12:23:16;4.55;;;4.10;;
11414;SDS011;5763;42.714;23.244;2023-07-31T12:25:43;4.20;;;3.90;;
11414;SDS011;5763;42.714;23.244;2023-07-31T12:28:10;4.70;;;4.30;;
11414;SDS011;5763;42.714;23.244;2023-07-31T12:30:38;5.70;;;5.20;;
11414;SDS011;5763;42.714;23.244;2023-07-31T12:33:06;5.68;;;4.70;;
11414;SDS011;5763;42.714;23.244;2023-07-31T12:35:39;5.43;;;4.95;;
11414;SDS011;5763;42.714;23.244;2023-07-31T12:38:07;5.60;;;5.00;;
11414;SDS011;5763;42.714;23.244;2023-07-31T12:40:37;6.20;;;5.70;;
11414;SDS011;5763;42.714;23.244;2023-07-31T12:43:05;5.57;;;5.10;;
11414;SDS011;5763;42.714;23.244;2023-07-31T12:45:32;5.30;;;4.90;;
11414;SDS011;5763;42.714;23.244;2023-07-31T12:47:59;5.18;;;4.78;;
11414;SDS011;5763;42.714;23.244;2023-07-31T12:50:27;5.05;;;4.65;;
11414;SDS011;5763;42.714;23.244;2023-07-31T12:52:54;5.65;;;5.25;;
11414;SDS011;5763;42.714;23.244;2023-07-31T12:55:21;5.60;;;5.20;;
11414;SDS011;5763;42.714;23.244;2023-07-31T12:57:50;7.15;;;5.32;;
11414;SDS011;5763;42.714;23.244;2023-07-31T13:00:17;5.70;;;5.20;;
11414;SDS011;5763;42.714;23.244;2023-07-31T13:02:44;5.95;;;4.90;;
11414;SDS011;5763;42.714;23.244;2023-07-31T13:05:10;5.07;;;4.68;;
11414;SDS011;5763;42.714;23.244;2023-07-31T13:07:38;6.97;;;5.07;;
11414;SDS011;5763;42.714;23.244;2023-07-31T13:10:05;5.57;;;5.10;;
11414;SDS011;5763;42.714;23.244;2023-07-31T13:12:33;5.28;;;4.78;;
11414;SDS011;5763;42.714;23.244;2023-07-31T13:15:01;5.20;;;4.63;;
11414;SDS011;5763;42.714;23.244;2023-07-31T13:17:28;4.88;;;4.05;;
11414;SDS011;5763;42.714;23.244;2023-07-31T13:19:55;4.05;;;3.75;;
11414;SDS011;5763;42.714;23.244;2023-07-31T13:22:23;4.10;;;3.47;;
11414;SDS011;5763;42.714;23.244;2023-07-31T13:24:50;4.38;;;3.97;;
11414;SDS011;5763;42.714;23.244;2023-07-31T13:27:17;4.30;;;3.92;;
11414;SDS011;5763;42.714;23.244;2023-07-31T13:29:45;4.15;;;3.75;;
11414;SDS011;5763;42.714;23.244;2023-07-31T13:32:13;4.13;;;3.78;;
11414;SDS011;5763;42.714;23.244;2023-07-31T13:34:40;4.43;;;4.03;;
11414;SDS011;5763;42.714;23.244;2023-07-31T13:37:07;4.57;;;4.20;;
11414;SDS011;5763;42.714;23.244;2023-07-31T13:39:34;4.63;;;4.22;;
11414;SDS011;5763;42.714;23.244;2023-07-31T13:42:01;4.38;;;3.97;;
11414;SDS011;5763;42.714;23.244;2023-07-31T13:44:31;4.53;;;3.88;;
11414;SDS011;5763;42.714;23.244;2023-07-31T13:46:58;4.50;;;4.20;;
11414;SDS011;5763;42.714;23.244;2023-07-31T13:49:27;4.20;;;3.80;;
11414;SDS011;5763;42.714;23.244;2023-07-31T13:51:54;5.95;;;3.85;;
11414;SDS011;5763;42.714;23.244;2023-07-31T13:54:21;4.10;;;3.70;;
11414;SDS011;5763;42.714;23.244;2023-07-31T13:56:48;3.97;;;3.67;;
11414;SDS011;5763;42.714;23.244;2023-07-31T13:59:15;4.07;;;3.67;;
11414;SDS011;5763;42.714;23.244;2023-07-31T14:01:42;4.28;;;3.97;;
11414;SDS011;5763;42.714;23.244;2023-07-31T14:04:09;3.92;;;3.63;;
11414;SDS011;5763;42.714;23.244;2023-07-31T14:06:37;6.57;;;4.25;;
11414;SDS011;5763;42.714;23.244;2023-07-31T14:09:04;5.32;;;3.88;;
11414;SDS011;5763;42.714;23.244;2023-07-31T14:11:31;4.45;;;3.88;;
11414;SDS011;5763;42.714;23.244;2023-07-31T14:13:58;5.47;;;3.67;;
11414;SDS011;5763;42.714;23.244;2023-07-31T14:16:26;4.10;;;3.80;;
11414;SDS011;5763;42.714;23.244;2023-07-31T14:18:53;4.10;;;3.80;;
11414;SDS011;5763;42.714;23.244;2023-07-31T14:21:20;3.92;;;3.53;;
11414;SDS011;5763;42.714;23.244;2023-07-31T14:23:48;5.88;;;3.55;;
11414;SDS011;5763;42.714;23.244;2023-07-31T14:26:15;4.70;;;3.65;;
11414;SDS011;5763;42.714;23.244;2023-07-31T14:28:42;4.75;;;3.65;;
11414;SDS011;5763;42.714;23.244;2023-07-31T14:31:09;4.22;;;3.55;;
11414;SDS011;5763;42.714;23.244;2023-07-31T14:33:36;3.53;;;3.22;;
11414;SDS011;5763;42.714;23.244;2023-07-31T14:36:02;4.93;;;3.60;;
11414;SDS011;5763;42.714;23.244;2023-07-31T14:38:29;3.88;;;3.58;;
11414;SDS011;5763;42.714;23.244;2023-07-31T14:40:57;4.10;;;3.58;;
11414;SDS011;5763;42.714;23.244;2023-07-31T14:43:24;3.25;;;2.85;;
11414;SDS011;5763;42.714;23.244;2023-07-31T14:45:51;3.88;;;3.53;;
11414;SDS011;5763;42.714;23.244;2023-07-31T14:48:21;3.75;;;3.45;;